sensor_id;sensor_type;location;lat;lon;timestamp;temperature;humidity
7317;DHT22;3699;51.462;6.696;2023-04-28T00:00:07;11.50;99.90
7317;DHT22;3699;51.462;6.696;2023-04-28T00:05:01;11.40;99.90
7317;DHT22;3699;51.462;6.696;2023-04-28T00:09:54;11.50;99.90
7317;DHT22;3699;51.462;6.696;2023-04-28T00:12:22;11.10;99.90
7317;DHT22;3699;51.462;6.696;2023-04-28T00:14:50;11.30;99.90
7317;DHT22;3699;51.462;6.696;2023-04-28T00:17:17;10.90;99.90
7317;DHT22;3699;51.462;6.696;2023-04-28T00:19:43;10.70;99.90
7317;DHT22;3699;51.462;6.696;2023-04-28T00:22:10;11.10;99.90
7317;DHT22;3699;51.462;6.696;2023-04-28T00:24:37;10.80;99.90
7317;DHT22;3699;51.462;6.696;2023-04-28T00:29:31;10.50;99.90
7317;DHT22;3699;51.462;6.696;2023-04-28T00:31:59;11.20;99.90
7317;DHT22;3699;51.462;6.696;2023-04-28T00:36:54;10.90;99.90
7317;DHT22;3699;51.462;6.696;2023-04-28T00:39:21;10.70;99.90
7317;DHT22;3699;51.462;6.696;2023-04-28T00:44:15;10.80;99.90
7317;DHT22;3699;51.462;6.696;2023-04-28T00:46:42;10.80;99.90
7317;DHT22;3699;51.462;6.696;2023-04-28T00:49:10;10.80;99.90
7317;DHT22;3699;51.462;6.696;2023-04-28T00:51:37;10.40;99.90
7317;DHT22;3699;51.462;6.696;2023-04-28T00:54:05;10.30;99.90
7317;DHT22;3699;51.462;6.696;2023-04-28T00:56:33;10.60;99.90
7317;DHT22;3699;51.462;6.696;2023-04-28T00:58:59;10.60;99.90
7317;DHT22;3699;51.462;6.696;2023-04-28T01:01:26;10.00;99.90
7317;DHT22;3699;51.462;6.696;2023-04-28T01:03:53;10.40;99.90
7317;DHT22;3699;51.462;6.696;2023-04-28T01:06:21;10.30;99.90
7317;DHT22;3699;51.462;6.696;2023-04-28T01:08:48;10.40;99.90
7317;DHT22;3699;51.462;6.696;2023-04-28T01:13:42;10.10;99.90
7317;DHT22;3699;51.462;6.696;2023-04-28T01:16:09;10.30;99.90
7317;DHT22;3699;51.462;6.696;2023-04-28T01:18:36;10.00;99.90
7317;DHT22;3699;51.462;6.696;2023-04-28T01:21:04;10.30;99.90
7317;DHT22;3699;51.462;6.696;2023-04-28T01:23:32;10.50;99.90
7317;DHT22;3699;51.462;6.696;2023-04-28T01:26:00;10.30;99.90
7317;DHT22;3699;51.462;6.696;2023-04-28T01:28:27;10.20;99.90
7317;DHT22;3699;51.462;6.696;2023-04-28T01:30:54;10.40;99.90
7317;DHT22;3699;51.462;6.696;2023-04-28T01:35:48;10.10;99.90
7317;DHT22;3699;51.462;6.696;2023-04-28T01:40:41;10.30;99.90
7317;DHT22;3699;51.462;6.696;2023-04-28T01:43:09;10.40;99.90
7317;DHT22;3699;51.462;6.696;2023-04-28T01:45:36;10.00;99.90
7317;DHT22;3699;51.462;6.696;2023-04-28T01:48:03;10.00;99.90
7317;DHT22;3699;51.462;6.696;2023-04-28T01:50:30;10.30;99.90
7317;DHT22;3699;51.462;6.696;2023-04-28T01:52:56;10.30;99.90
7317;DHT22;3699;51.462;6.696;2023-04-28T01:55:23;10.00;99.90
7317;DHT22;3699;51.462;6.696;2023-04-28T01:57:50;10.00;99.90
7317;DHT22;3699;51.462;6.696;2023-04-28T02:00:18;10.00;99.90
7317;DHT22;3699;51.462;6.696;2023-04-28T02:02:45;10.00;99.90
7317;DHT22;3699;51.462;6.696;2023-04-28T02:07:39;9.90;99.90
7317;DHT22;3699;51.462;6.696;2023-04-28T02:10:06;10.10;99.90
7317;DHT22;3699;51.462;6.696;2023-04-28T02:12:33;9.80;99.90
7317;DHT22;3699;51.462;6.696;2023-04-28T02:15:00;9.80;99.90
7317;DHT22;3699;51.462;6.696;2023-04-28T02:17:30;9.90;99.90
7317;DHT22;3699;51.462;6.696;2023-04-28T02:19:57;10.00;99.90
7317;DHT22;3699;51.462;6.696;2023-04-28T02:22:24;9.30;99.90
7317;DHT22;3699;51.462;6.696;2023-04-28T02:24:50;9.80;99.90
7317;DHT22;3699;51.462;6.696;2023-04-28T02:27:17;10.00;99.90
7317;DHT22;3699;51.462;6.696;2023-04-28T02:32:11;10.20;99.90
7317;DHT22;3699;51.462;6.696;2023-04-28T02:34:39;10.40;99.90
7317;DHT22;3699;51.462;6.696;2023-04-28T02:37:06;10.20;99.90
7317;DHT22;3699;51.462;6.696;2023-04-28T02:42:00;10.20;99.90
7317;DHT22;3699;51.462;6.696;2023-04-28T02:44:30;9.90;99.90
7317;DHT22;3699;51.462;6.696;2023-04-28T02:46:56;10.00;99.90
7317;DHT22;3699;51.462;6.696;2023-04-28T02:51:51;10.20;99.90
7317;DHT22;3699;51.462;6.696;2023-04-28T02:54:18;10.20;99.90
7317;DHT22;3699;51.462;6.696;2023-04-28T02:56:51;10.10;99.90
7317;DHT22;3699;51.462;6.696;2023-04-28T02:59:18;10.40;99.90
7317;DHT22;3699;51.462;6.696;2023-04-28T03:01:45;9.90;99.90
7317;DHT22;3699;51.462;6.696;2023-04-28T03:04:12;9.90;99.90
7317;DHT22;3699;51.462;6.696;2023-04-28T03:06:39;9.90;99.90
7317;DHT22;3699;51.462;6.696;2023-04-28T03:09:07;9.80;99.90
7317;DHT22;3699;51.462;6.696;2023-04-28T03:14:01;9.90;99.90
7317;DHT22;3699;51.462;6.696;2023-04-28T03:16:28;10.10;99.90
7317;DHT22;3699;51.462;6.696;2023-04-28T03:18:54;9.90;99.90
7317;DHT22;3699;51.462;6.696;2023-04-28T03:21:21;10.10;99.90
7317;DHT22;3699;51.462;6.696;2023-04-28T03:23:48;9.90;99.90
7317;DHT22;3699;51.462;6.696;2023-04-28T03:26:16;9.90;99.90
7317;DHT22;3699;51.462;6.696;2023-04-28T03:28:42;10.10;99.90
7317;DHT22;3699;51.462;6.696;2023-04-28T03:31:09;10.20;99.90
7317;DHT22;3699;51.462;6.696;2023-04-28T03:36:03;10.20;99.90
7317;DHT22;3699;51.462;6.696;2023-04-28T03:43:25;10.00;99.90
7317;DHT22;3699;51.462;6.696;2023-04-28T03:45:52;9.90;99.90
7317;DHT22;3699;51.462;6.696;2023-04-28T03:48:19;10.20;99.90
7317;DHT22;3699;51.462;6.696;2023-04-28T03:50:46;10.00;99.90
7317;DHT22;3699;51.462;6.696;2023-04-28T03:53:12;9.90;99.90
7317;DHT22;3699;51.462;6.696;2023-04-28T03:55:39;9.90;99.90
7317;DHT22;3699;51.462;6.696;2023-04-28T03:58:06;9.80;99.90
7317;DHT22;3699;51.462;6.696;2023-04-28T04:00:34;10.10;99.90
7317;DHT22;3699;51.462;6.696;2023-04-28T04:03:01;10.10;99.90
7317;DHT22;3699;51.462;6.696;2023-04-28T04:05:28;10.20;99.90
7317;DHT22;3699;51.462;6.696;2023-04-28T04:07:55;10.20;99.90
7317;DHT22;3699;51.462;6.696;2023-04-28T04:10:22;10.10;99.90
7317;DHT22;3699;51.462;6.696;2023-04-28T04:15:16;10.10;99.90
7317;DHT22;3699;51.462;6.696;2023-04-28T04:17:44;10.20;99.90
7317;DHT22;3699;51.462;6.696;2023-04-28T04:22:38;10.00;99.90
7317;DHT22;3699;51.462;6.696;2023-04-28T04:25:05;10.50;99.90
7317;DHT22;3699;51.462;6.696;2023-04-28T04:27:32;10.60;99.90
7317;DHT22;3699;51.462;6.696;2023-04-28T04:29:59;10.70;99.90
7317;DHT22;3699;51.462;6.696;2023-04-28T04:32:26;10.40;99.90
7317;DHT22;3699;51.462;6.696;2023-04-28T04:34:54;10.60;99.90
7317;DHT22;3699;51.462;6.696;2023-04-28T04:37:22;10.80;99.90
7317;DHT22;3699;51.462;6.696;2023-04-28T04:39:48;10.40;99.90
7317;DHT22;3699;51.462;6.696;2023-04-28T04:44:42;10.50;99.90
7317;DHT22;3699;51.462;6.696;2023-04-28T04:47:09;10.80;99.90
7317;DHT22;3699;51.462;6.696;2023-04-28T04:49:36;10.80;99.90
7317;DHT22;3699;51.462;6.696;2023-04-28T04:52:04;10.70;99.90
7317;DHT22;3699;51.462;6.696;2023-04-28T04:54:31;10.70;99.90
7317;DHT22;3699;51.462;6.696;2023-04-28T04:56:58;11.00;99.90
7317;DHT22;3699;51.462;6.696;2023-04-28T04:59:24;10.70;99.90
7317;DHT22;3699;51.462;6.696;2023-04-28T05:04:18;10.90;99.90
7317;DHT22;3699;51.462;6.696;2023-04-28T05:09:13;10.90;99.90
7317;DHT22;3699;51.462;6.696;2023-04-28T05:11:40;10.90;99.90
7317;DHT22;3699;51.462;6.696;2023-04-28T05:16:34;11.20;99.90
7317;DHT22;3699;51.462;6.696;2023-04-28T05:19:01;11.00;99.90
7317;DHT22;3699;51.462;6.696;2023-04-28T05:23:55;11.30;99.90
7317;DHT22;3699;51.462;6.696;2023-04-28T05:26:23;11.20;99.90
7317;DHT22;3699;51.462;6.696;2023-04-28T05:28:50;11.00;99.90
7317;DHT22;3699;51.462;6.696;2023-04-28T05:31:17;10.90;99.90
7317;DHT22;3699;51.462;6.696;2023-04-28T05:36:11;11.40;99.90
7317;DHT22;3699;51.462;6.696;2023-04-28T05:41:08;11.40;99.90
7317;DHT22;3699;51.462;6.696;2023-04-28T05:43:36;11.30;99.90
7317;DHT22;3699;51.462;6.696;2023-04-28T05:48:30;12.00;99.90
7317;DHT22;3699;51.462;6.696;2023-04-28T05:50:57;11.60;99.90
7317;DHT22;3699;51.462;6.696;2023-04-28T05:55:51;11.60;99.90
7317;DHT22;3699;51.462;6.696;2023-04-28T05:58:17;11.50;99.90
7317;DHT22;3699;51.462;6.696;2023-04-28T06:00:45;11.40;99.90
7317;DHT22;3699;51.462;6.696;2023-04-28T06:03:12;11.70;99.90
7317;DHT22;3699;51.462;6.696;2023-04-28T06:05:43;11.60;99.90
7317;DHT22;3699;51.462;6.696;2023-04-28T06:15:31;11.70;99.90
7317;DHT22;3699;51.462;6.696;2023-04-28T06:17:59;11.60;99.90
7317;DHT22;3699;51.462;6.696;2023-04-28T06:20:26;11.80;99.90
7317;DHT22;3699;51.462;6.696;2023-04-28T06:25:20;11.90;99.90
7317;DHT22;3699;51.462;6.696;2023-04-28T06:27:47;11.90;99.90
7317;DHT22;3699;51.462;6.696;2023-04-28T06:30:16;11.80;99.90
7317;DHT22;3699;51.462;6.696;2023-04-28T06:35:13;11.80;99.90
7317;DHT22;3699;51.462;6.696;2023-04-28T06:37:40;11.90;99.90
7317;DHT22;3699;51.462;6.696;2023-04-28T06:40:08;12.00;99.90
7317;DHT22;3699;51.462;6.696;2023-04-28T06:45:02;12.20;99.90
7317;DHT22;3699;51.462;6.696;2023-04-28T06:47:29;12.40;99.90
7317;DHT22;3699;51.462;6.696;2023-04-28T06:52:24;12.40;99.90
7317;DHT22;3699;51.462;6.696;2023-04-28T06:54:52;12.30;99.90
7317;DHT22;3699;51.462;6.696;2023-04-28T07:02:13;13.40;99.90
7317;DHT22;3699;51.462;6.696;2023-04-28T07:04:40;13.70;99.90
7317;DHT22;3699;51.462;6.696;2023-04-28T07:07:06;13.80;99.90
7317;DHT22;3699;51.462;6.696;2023-04-28T07:09:35;14.10;99.90
7317;DHT22;3699;51.462;6.696;2023-04-28T07:12:02;14.30;99.90
7317;DHT22;3699;51.462;6.696;2023-04-28T07:14:29;14.30;99.90
7317;DHT22;3699;51.462;6.696;2023-04-28T07:16:56;14.50;99.90
7317;DHT22;3699;51.462;6.696;2023-04-28T07:19:23;14.40;99.90
7317;DHT22;3699;51.462;6.696;2023-04-28T07:21:50;14.40;99.90
7317;DHT22;3699;51.462;6.696;2023-04-28T07:24:17;14.40;99.90
7317;DHT22;3699;51.462;6.696;2023-04-28T07:26:45;14.40;99.90
7317;DHT22;3699;51.462;6.696;2023-04-28T07:29:12;14.70;99.90
7317;DHT22;3699;51.462;6.696;2023-04-28T07:36:33;14.70;99.90
7317;DHT22;3699;51.462;6.696;2023-04-28T07:39:00;15.00;99.90
7317;DHT22;3699;51.462;6.696;2023-04-28T07:41:28;14.80;99.90
7317;DHT22;3699;51.462;6.696;2023-04-28T07:43:56;14.60;99.90
7317;DHT22;3699;51.462;6.696;2023-04-28T07:46:22;14.50;99.90
7317;DHT22;3699;51.462;6.696;2023-04-28T07:56:10;14.60;99.90
7317;DHT22;3699;51.462;6.696;2023-04-28T08:01:06;14.90;99.90
7317;DHT22;3699;51.462;6.696;2023-04-28T08:08:27;14.90;99.90
7317;DHT22;3699;51.462;6.696;2023-04-28T08:10:54;15.40;99.90
7317;DHT22;3699;51.462;6.696;2023-04-28T08:15:48;15.70;99.90
7317;DHT22;3699;51.462;6.696;2023-04-28T08:18:16;16.00;99.90
7317;DHT22;3699;51.462;6.696;2023-04-28T08:23:11;15.70;99.90
7317;DHT22;3699;51.462;6.696;2023-04-28T08:25:37;15.90;99.90
7317;DHT22;3699;51.462;6.696;2023-04-28T08:28:04;15.70;99.90
7317;DHT22;3699;51.462;6.696;2023-04-28T08:30:33;16.00;99.90
7317;DHT22;3699;51.462;6.696;2023-04-28T08:35:28;16.10;99.90
7317;DHT22;3699;51.462;6.696;2023-04-28T08:37:55;16.30;99.90
7317;DHT22;3699;51.462;6.696;2023-04-28T08:42:51;16.00;99.90
7317;DHT22;3699;51.462;6.696;2023-04-28T08:47:48;16.00;99.90
7317;DHT22;3699;51.462;6.696;2023-04-28T08:50:19;16.10;99.90
7317;DHT22;3699;51.462;6.696;2023-04-28T08:52:51;16.00;99.90
7317;DHT22;3699;51.462;6.696;2023-04-28T08:55:18;15.90;99.90
7317;DHT22;3699;51.462;6.696;2023-04-28T08:57:47;16.20;99.90
7317;DHT22;3699;51.462;6.696;2023-04-28T09:00:16;16.10;99.90
7317;DHT22;3699;51.462;6.696;2023-04-28T09:05:11;16.10;99.90
7317;DHT22;3699;51.462;6.696;2023-04-28T09:07:38;16.40;99.90
7317;DHT22;3699;51.462;6.696;2023-04-28T09:10:18;16.20;99.90
7317;DHT22;3699;51.462;6.696;2023-04-28T09:12:46;15.80;99.90
7317;DHT22;3699;51.462;6.696;2023-04-28T09:15:25;16.10;99.90
7317;DHT22;3699;51.462;6.696;2023-04-28T09:20:19;16.10;99.90
7317;DHT22;3699;51.462;6.696;2023-04-28T09:22:48;16.20;99.90
7317;DHT22;3699;51.462;6.696;2023-04-28T09:25:16;16.20;99.90
7317;DHT22;3699;51.462;6.696;2023-04-28T09:30:11;16.60;99.90
7317;DHT22;3699;51.462;6.696;2023-04-28T09:32:38;16.10;99.90
7317;DHT22;3699;51.462;6.696;2023-04-28T09:35:05;16.70;99.90
7317;DHT22;3699;51.462;6.696;2023-04-28T09:37:33;16.70;99.90
7317;DHT22;3699;51.462;6.696;2023-04-28T09:40:05;16.80;99.90
7317;DHT22;3699;51.462;6.696;2023-04-28T09:42:36;17.00;99.90
7317;DHT22;3699;51.462;6.696;2023-04-28T09:45:04;17.10;99.90
7317;DHT22;3699;51.462;6.696;2023-04-28T09:47:32;17.30;99.90
7317;DHT22;3699;51.462;6.696;2023-04-28T09:50:00;16.90;99.90
7317;DHT22;3699;51.462;6.696;2023-04-28T09:52:27;17.20;99.90
7317;DHT22;3699;51.462;6.696;2023-04-28T09:54:55;17.10;99.90
7317;DHT22;3699;51.462;6.696;2023-04-28T09:57:23;16.90;99.90
7317;DHT22;3699;51.462;6.696;2023-04-28T09:59:52;16.50;99.90
7317;DHT22;3699;51.462;6.696;2023-04-28T10:02:20;16.80;99.90
7317;DHT22;3699;51.462;6.696;2023-04-28T10:04:48;16.60;99.90
7317;DHT22;3699;51.462;6.696;2023-04-28T10:07:16;16.60;99.90
7317;DHT22;3699;51.462;6.696;2023-04-28T10:12:13;16.60;99.90
7317;DHT22;3699;51.462;6.696;2023-04-28T10:14:40;16.60;99.90
7317;DHT22;3699;51.462;6.696;2023-04-28T10:17:09;16.80;99.90
7317;DHT22;3699;51.462;6.696;2023-04-28T10:19:37;16.60;99.90
7317;DHT22;3699;51.462;6.696;2023-04-28T10:22:23;16.60;99.90
7317;DHT22;3699;51.462;6.696;2023-04-28T10:27:31;16.70;99.90
7317;DHT22;3699;51.462;6.696;2023-04-28T10:30:12;16.70;99.90
7317;DHT22;3699;51.462;6.696;2023-04-28T10:32:40;16.70;99.90
7317;DHT22;3699;51.462;6.696;2023-04-28T10:35:42;16.80;99.90
7317;DHT22;3699;51.462;6.696;2023-04-28T10:38:11;16.90;99.90
7317;DHT22;3699;51.462;6.696;2023-04-28T10:40:39;16.50;99.90
7317;DHT22;3699;51.462;6.696;2023-04-28T10:43:07;16.90;99.90
7317;DHT22;3699;51.462;6.696;2023-04-28T10:46:00;16.60;99.90
7317;DHT22;3699;51.462;6.696;2023-04-28T10:48:54;16.50;99.90
7317;DHT22;3699;51.462;6.696;2023-04-28T10:51:31;16.90;99.90
7317;DHT22;3699;51.462;6.696;2023-04-28T10:54:22;16.80;99.90
7317;DHT22;3699;51.462;6.696;2023-04-28T10:57:18;16.90;99.90
7317;DHT22;3699;51.462;6.696;2023-04-28T10:59:46;16.90;99.90
7317;DHT22;3699;51.462;6.696;2023-04-28T11:02:35;16.90;99.90
7317;DHT22;3699;51.462;6.696;2023-04-28T11:05:15;16.90;99.90
7317;DHT22;3699;51.462;6.696;2023-04-28T11:11:16;16.70;99.90
7317;DHT22;3699;51.462;6.696;2023-04-28T11:13:44;16.80;99.90
7317;DHT22;3699;51.462;6.696;2023-04-28T11:16:14;16.60;99.90
7317;DHT22;3699;51.462;6.696;2023-04-28T11:18:49;16.00;99.90
7317;DHT22;3699;51.462;6.696;2023-04-28T11:21:17;16.40;99.90
7317;DHT22;3699;51.462;6.696;2023-04-28T11:23:45;16.40;99.90
7317;DHT22;3699;51.462;6.696;2023-04-28T11:26:12;16.60;99.90
7317;DHT22;3699;51.462;6.696;2023-04-28T11:28:46;16.70;99.90
7317;DHT22;3699;51.462;6.696;2023-04-28T11:31:14;16.60;99.90
7317;DHT22;3699;51.462;6.696;2023-04-28T11:33:45;16.80;99.90
7317;DHT22;3699;51.462;6.696;2023-04-28T11:36:27;16.90;99.90
7317;DHT22;3699;51.462;6.696;2023-04-28T11:43:49;17.50;99.90
7317;DHT22;3699;51.462;6.696;2023-04-28T11:46:16;17.60;99.90
7317;DHT22;3699;51.462;6.696;2023-04-28T11:48:43;17.70;99.90
7317;DHT22;3699;51.462;6.696;2023-04-28T11:51:34;17.90;99.90
7317;DHT22;3699;51.462;6.696;2023-04-28T11:54:01;18.00;99.90
7317;DHT22;3699;51.462;6.696;2023-04-28T11:56:29;17.90;99.90
7317;DHT22;3699;51.462;6.696;2023-04-28T11:59:04;17.80;99.90
7317;DHT22;3699;51.462;6.696;2023-04-28T12:01:33;18.00;99.90
7317;DHT22;3699;51.462;6.696;2023-04-28T12:04:02;17.90;99.90
7317;DHT22;3699;51.462;6.696;2023-04-28T12:06:29;18.20;99.90
7317;DHT22;3699;51.462;6.696;2023-04-28T12:08:57;18.40;99.90
7317;DHT22;3699;51.462;6.696;2023-04-28T12:11:28;18.60;99.90
7317;DHT22;3699;51.462;6.696;2023-04-28T12:14:05;19.00;99.90
7317;DHT22;3699;51.462;6.696;2023-04-28T12:16:40;18.40;99.90
7317;DHT22;3699;51.462;6.696;2023-04-28T12:19:10;18.50;99.90
7317;DHT22;3699;51.462;6.696;2023-04-28T12:21:37;18.30;99.90
7317;DHT22;3699;51.462;6.696;2023-04-28T12:24:19;18.50;99.90
7317;DHT22;3699;51.462;6.696;2023-04-28T12:26:46;18.40;99.90
7317;DHT22;3699;51.462;6.696;2023-04-28T12:29:36;18.20;99.90
7317;DHT22;3699;51.462;6.696;2023-04-28T12:32:05;18.70;99.90
7317;DHT22;3699;51.462;6.696;2023-04-28T12:34:32;18.50;99.90
7317;DHT22;3699;51.462;6.696;2023-04-28T12:36:59;18.70;99.90
7317;DHT22;3699;51.462;6.696;2023-04-28T12:39:27;19.00;99.90
7317;DHT22;3699;51.462;6.696;2023-04-28T12:41:54;19.40;99.90
7317;DHT22;3699;51.462;6.696;2023-04-28T12:44:23;19.90;99.90
7317;DHT22;3699;51.462;6.696;2023-04-28T12:46:50;20.30;99.90
7317;DHT22;3699;51.462;6.696;2023-04-28T12:49:17;20.80;99.90
7317;DHT22;3699;51.462;6.696;2023-04-28T12:51:44;20.90;99.90
7317;DHT22;3699;51.462;6.696;2023-04-28T12:54:11;20.90;99.90
7317;DHT22;3699;51.462;6.696;2023-04-28T12:56:40;20.90;99.90
7317;DHT22;3699;51.462;6.696;2023-04-28T12:59:07;20.80;99.90
7317;DHT22;3699;51.462;6.696;2023-04-28T13:01:33;20.50;99.90
7317;DHT22;3699;51.462;6.696;2023-04-28T13:04:00;19.90;99.90
7317;DHT22;3699;51.462;6.696;2023-04-28T13:06:27;20.00;99.90
7317;DHT22;3699;51.462;6.696;2023-04-28T13:08:54;19.70;99.90
7317;DHT22;3699;51.462;6.696;2023-04-28T13:11:21;19.40;99.90
7317;DHT22;3699;51.462;6.696;2023-04-28T13:13:50;19.40;99.90
7317;DHT22;3699;51.462;6.696;2023-04-28T13:16:17;19.30;99.90
7317;DHT22;3699;51.462;6.696;2023-04-28T13:18:44;19.30;99.90
7317;DHT22;3699;51.462;6.696;2023-04-28T13:21:11;19.30;99.90
7317;DHT22;3699;51.462;6.696;2023-04-28T13:23:37;19.40;99.90
7317;DHT22;3699;51.462;6.696;2023-04-28T13:26:04;19.50;99.90
7317;DHT22;3699;51.462;6.696;2023-04-28T13:28:31;19.50;99.90
7317;DHT22;3699;51.462;6.696;2023-04-28T13:30:59;20.10;99.90
7317;DHT22;3699;51.462;6.696;2023-04-28T13:33:25;20.40;99.90
7317;DHT22;3699;51.462;6.696;2023-04-28T13:35:56;20.50;99.90
7317;DHT22;3699;51.462;6.696;2023-04-28T13:38:23;20.50;99.90
7317;DHT22;3699;51.462;6.696;2023-04-28T13:40:50;20.70;99.90
7317;DHT22;3699;51.462;6.696;2023-04-28T13:43:17;20.60;99.90
7317;DHT22;3699;51.462;6.696;2023-04-28T13:45:44;20.90;99.90
7317;DHT22;3699;51.462;6.696;2023-04-28T13:48:12;20.90;99.90
7317;DHT22;3699;51.462;6.696;2023-04-28T13:50:39;20.80;99.90
7317;DHT22;3699;51.462;6.696;2023-04-28T13:53:06;20.80;99.90
7317;DHT22;3699;51.462;6.696;2023-04-28T13:55:32;20.70;99.90
7317;DHT22;3699;51.462;6.696;2023-04-28T13:57:59;20.70;99.90
7317;DHT22;3699;51.462;6.696;2023-04-28T14:00:29;20.60;99.90
7317;DHT22;3699;51.462;6.696;2023-04-28T14:02:56;20.40;99.90
7317;DHT22;3699;51.462;6.696;2023-04-28T14:05:25;20.30;99.90
7317;DHT22;3699;51.462;6.696;2023-04-28T14:07:52;19.60;99.90
7317;DHT22;3699;51.462;6.696;2023-04-28T14:10:19;20.30;99.90
7317;DHT22;3699;51.462;6.696;2023-04-28T14:12:46;20.30;99.90
7317;DHT22;3699;51.462;6.696;2023-04-28T14:15:13;20.40;99.90
7317;DHT22;3699;51.462;6.696;2023-04-28T14:17:40;20.60;99.90
7317;DHT22;3699;51.462;6.696;2023-04-28T14:20:08;20.60;99.90
7317;DHT22;3699;51.462;6.696;2023-04-28T14:22:37;20.70;99.90
7317;DHT22;3699;51.462;6.696;2023-04-28T14:25:05;20.70;99.90
7317;DHT22;3699;51.462;6.696;2023-04-28T14:27:32;20.60;99.90
7317;DHT22;3699;51.462;6.696;2023-04-28T14:29:59;20.40;99.90
7317;DHT22;3699;51.462;6.696;2023-04-28T14:32:26;20.20;99.90
7317;DHT22;3699;51.462;6.696;2023-04-28T14:34:53;20.00;99.90
7317;DHT22;3699;51.462;6.696;2023-04-28T14:37:19;19.60;99.90
7317;DHT22;3699;51.462;6.696;2023-04-28T14:39:48;19.70;99.90
7317;DHT22;3699;51.462;6.696;2023-04-28T14:42:14;19.60;99.90
7317;DHT22;3699;51.462;6.696;2023-04-28T14:44:42;19.50;99.90
7317;DHT22;3699;51.462;6.696;2023-04-28T14:47:09;19.50;99.90
7317;DHT22;3699;51.462;6.696;2023-04-28T14:49:37;19.50;99.90
7317;DHT22;3699;51.462;6.696;2023-04-28T14:52:04;19.60;99.90
7317;DHT22;3699;51.462;6.696;2023-04-28T14:54:31;19.40;99.90
7317;DHT22;3699;51.462;6.696;2023-04-28T14:56:59;19.30;99.90
7317;DHT22;3699;51.462;6.696;2023-04-28T14:59:26;19.20;99.90
7317;DHT22;3699;51.462;6.696;2023-04-28T15:01:53;19.10;99.90
7317;DHT22;3699;51.462;6.696;2023-04-28T15:04:21;21.10;99.90
7317;DHT22;3699;51.462;6.696;2023-04-28T15:06:53;18.70;99.90
7317;DHT22;3699;51.462;6.696;2023-04-28T15:09:20;18.60;99.90
7317;DHT22;3699;51.462;6.696;2023-04-28T15:11:46;18.40;99.90
7317;DHT22;3699;51.462;6.696;2023-04-28T15:14:15;18.30;99.90
7317;DHT22;3699;51.462;6.696;2023-04-28T15:16:42;18.10;99.90
7317;DHT22;3699;51.462;6.696;2023-04-28T15:19:09;18.10;99.90
7317;DHT22;3699;51.462;6.696;2023-04-28T15:21:36;18.00;99.90
7317;DHT22;3699;51.462;6.696;2023-04-28T15:24:03;17.90;99.90
7317;DHT22;3699;51.462;6.696;2023-04-28T15:26:30;18.00;99.90
7317;DHT22;3699;51.462;6.696;2023-04-28T15:28:57;18.00;99.90
7317;DHT22;3699;51.462;6.696;2023-04-28T15:31:25;18.80;99.90
7317;DHT22;3699;51.462;6.696;2023-04-28T15:33:53;17.90;99.90
7317;DHT22;3699;51.462;6.696;2023-04-28T15:36:20;18.00;99.90
7317;DHT22;3699;51.462;6.696;2023-04-28T15:38:47;18.00;99.90
7317;DHT22;3699;51.462;6.696;2023-04-28T15:41:14;18.10;99.90
7317;DHT22;3699;51.462;6.696;2023-04-28T15:43:42;18.20;99.90
7317;DHT22;3699;51.462;6.696;2023-04-28T15:46:10;18.30;99.90
7317;DHT22;3699;51.462;6.696;2023-04-28T15:48:43;18.30;99.90
7317;DHT22;3699;51.462;6.696;2023-04-28T15:51:10;18.30;99.90
7317;DHT22;3699;51.462;6.696;2023-04-28T15:53:37;18.30;99.90
7317;DHT22;3699;51.462;6.696;2023-04-28T15:56:04;18.50;99.90
7317;DHT22;3699;51.462;6.696;2023-04-28T15:58:32;18.40;99.90
7317;DHT22;3699;51.462;6.696;2023-04-28T16:00:58;18.30;99.90
7317;DHT22;3699;51.462;6.696;2023-04-28T16:03:25;18.30;99.90
7317;DHT22;3699;51.462;6.696;2023-04-28T16:05:54;18.40;99.90
7317;DHT22;3699;51.462;6.696;2023-04-28T16:08:21;18.30;99.90
7317;DHT22;3699;51.462;6.696;2023-04-28T16:10:49;18.10;99.90
7317;DHT22;3699;51.462;6.696;2023-04-28T16:13:16;18.00;99.90
7317;DHT22;3699;51.462;6.696;2023-04-28T16:15:43;17.90;99.90
7317;DHT22;3699;51.462;6.696;2023-04-28T16:18:10;17.70;99.90
7317;DHT22;3699;51.462;6.696;2023-04-28T16:20:37;17.60;99.90
7317;DHT22;3699;51.462;6.696;2023-04-28T16:23:05;17.60;99.90
7317;DHT22;3699;51.462;6.696;2023-04-28T16:25:32;17.50;99.90
7317;DHT22;3699;51.462;6.696;2023-04-28T16:27:59;17.40;99.90
7317;DHT22;3699;51.462;6.696;2023-04-28T16:30:26;17.40;99.90
7317;DHT22;3699;51.462;6.696;2023-04-28T16:32:53;17.50;99.90
7317;DHT22;3699;51.462;6.696;2023-04-28T16:35:22;17.40;99.90
7317;DHT22;3699;51.462;6.696;2023-04-28T16:37:49;17.40;99.90
7317;DHT22;3699;51.462;6.696;2023-04-28T16:40:17;17.40;99.90
7317;DHT22;3699;51.462;6.696;2023-04-28T16:42:44;17.40;99.90
7317;DHT22;3699;51.462;6.696;2023-04-28T16:45:11;17.40;99.90
7317;DHT22;3699;51.462;6.696;2023-04-28T16:47:39;17.40;99.90
7317;DHT22;3699;51.462;6.696;2023-04-28T16:50:08;17.40;99.90
7317;DHT22;3699;51.462;6.696;2023-04-28T16:52:35;18.70;99.90
7317;DHT22;3699;51.462;6.696;2023-04-28T16:55:02;17.50;99.90
7317;DHT22;3699;51.462;6.696;2023-04-28T16:57:31;17.30;99.90
7317;DHT22;3699;51.462;6.696;2023-04-28T16:59:57;17.40;99.90
7317;DHT22;3699;51.462;6.696;2023-04-28T17:02:24;17.20;99.90
7317;DHT22;3699;51.462;6.696;2023-04-28T17:04:53;17.20;99.90
7317;DHT22;3699;51.462;6.696;2023-04-28T17:07:20;17.20;99.90
7317;DHT22;3699;51.462;6.696;2023-04-28T17:09:46;17.10;99.90
7317;DHT22;3699;51.462;6.696;2023-04-28T17:12:14;17.10;99.90
7317;DHT22;3699;51.462;6.696;2023-04-28T17:14:42;17.00;99.90
7317;DHT22;3699;51.462;6.696;2023-04-28T17:17:09;16.90;99.90
7317;DHT22;3699;51.462;6.696;2023-04-28T17:19:36;16.90;99.90
7317;DHT22;3699;51.462;6.696;2023-04-28T17:22:04;16.80;99.90
7317;DHT22;3699;51.462;6.696;2023-04-28T17:24:31;16.70;99.90
7317;DHT22;3699;51.462;6.696;2023-04-28T17:26:58;16.60;99.90
7317;DHT22;3699;51.462;6.696;2023-04-28T17:29:25;16.60;99.90
7317;DHT22;3699;51.462;6.696;2023-04-28T17:31:54;16.70;99.90
7317;DHT22;3699;51.462;6.696;2023-04-28T17:34:20;16.40;99.90
7317;DHT22;3699;51.462;6.696;2023-04-28T17:36:47;16.40;99.90
7317;DHT22;3699;51.462;6.696;2023-04-28T17:39:14;16.30;99.90
7317;DHT22;3699;51.462;6.696;2023-04-28T17:41:41;16.30;99.90
7317;DHT22;3699;51.462;6.696;2023-04-28T17:44:07;16.20;99.90
7317;DHT22;3699;51.462;6.696;2023-04-28T17:46:34;16.20;99.90
7317;DHT22;3699;51.462;6.696;2023-04-28T17:49:04;16.10;99.90
7317;DHT22;3699;51.462;6.696;2023-04-28T17:51:31;16.10;99.90
7317;DHT22;3699;51.462;6.696;2023-04-28T17:53:57;16.10;99.90
7317;DHT22;3699;51.462;6.696;2023-04-28T17:56:25;16.10;99.90
7317;DHT22;3699;51.462;6.696;2023-04-28T17:58:52;16.00;99.90
7317;DHT22;3699;51.462;6.696;2023-04-28T18:01:19;16.00;99.90
7317;DHT22;3699;51.462;6.696;2023-04-28T18:03:46;15.00;99.90
7317;DHT22;3699;51.462;6.696;2023-04-28T18:06:14;15.50;99.90
7317;DHT22;3699;51.462;6.696;2023-04-28T18:08:41;15.90;99.90
7317;DHT22;3699;51.462;6.696;2023-04-28T18:11:08;15.90;99.90
7317;DHT22;3699;51.462;6.696;2023-04-28T18:13:35;15.80;99.90
7317;DHT22;3699;51.462;6.696;2023-04-28T18:16:02;15.90;99.90
7317;DHT22;3699;51.462;6.696;2023-04-28T18:18:30;15.90;99.90
7317;DHT22;3699;51.462;6.696;2023-04-28T18:20:57;15.90;99.90
7317;DHT22;3699;51.462;6.696;2023-04-28T18:23:28;15.80;99.90
7317;DHT22;3699;51.462;6.696;2023-04-28T18:25:55;15.80;99.90
7317;DHT22;3699;51.462;6.696;2023-04-28T18:28:22;15.80;99.90